sensor_id;sensor_type;location;lat;lon;timestamp;P1;durP1;ratioP1;P2;durP2;ratioP2
27706;SDS011;36332;51.384;0.040;2023-03-23T00:01:36;34.15;;;5.80;;
27706;SDS011;36332;51.384;0.040;2023-03-23T00:04:03;26.92;;;5.32;;
27706;SDS011;36332;51.384;0.040;2023-03-23T00:06:29;30.67;;;5.65;;
27706;SDS011;36332;51.384;0.040;2023-03-23T00:08:59;25.90;;;5.75;;
27706;SDS011;36332;51.384;0.040;2023-03-23T00:11:30;39.65;;;6.47;;
27706;SDS011;36332;51.384;0.040;2023-03-23T00:13:58;34.15;;;6.40;;
27706;SDS011;36332;51.384;0.040;2023-03-23T00:16:29;47.17;;;6.25;;
27706;SDS011;36332;51.384;0.040;2023-03-23T00:19:02;34.50;;;6.40;;
27706;SDS011;36332;51.384;0.040;2023-03-23T00:21:34;38.55;;;6.95;;
27706;SDS011;36332;51.384;0.040;2023-03-23T00:24:04;40.97;;;8.05;;
27706;SDS011;36332;51.384;0.040;2023-03-23T00:26:33;38.67;;;7.22;;
27706;SDS011;36332;51.384;0.040;2023-03-23T00:29:02;39.50;;;6.72;;
27706;SDS011;36332;51.384;0.040;2023-03-23T00:31:29;32.45;;;5.55;;
27706;SDS011;36332;51.384;0.040;2023-03-23T00:34:03;37.70;;;6.78;;
27706;SDS011;36332;51.384;0.040;2023-03-23T00:36:31;36.17;;;7.20;;
27706;SDS011;36332;51.384;0.040;2023-03-23T00:39:05;33.67;;;6.90;;
27706;SDS011;36332;51.384;0.040;2023-03-23T00:41:31;35.38;;;5.07;;
27706;SDS011;36332;51.384;0.040;2023-03-23T00:43:59;41.35;;;5.50;;
27706;SDS011;36332;51.384;0.040;2023-03-23T00:46:26;41.72;;;6.15;;
27706;SDS011;36332;51.384;0.040;2023-03-23T00:48:54;37.95;;;6.28;;
27706;SDS011;36332;51.384;0.040;2023-03-23T00:51:23;43.90;;;7.70;;
27706;SDS011;36332;51.384;0.040;2023-03-23T00:53:50;43.72;;;5.80;;
27706;SDS011;36332;51.384;0.040;2023-03-23T00:56:17;48.05;;;6.63;;
27706;SDS011;36332;51.384;0.040;2023-03-23T00:58:43;41.85;;;6.07;;
27706;SDS011;36332;51.384;0.040;2023-03-23T01:01:10;31.25;;;7.50;;
27706;SDS011;36332;51.384;0.040;2023-03-23T01:03:37;38.58;;;6.97;;
27706;SDS011;36332;51.384;0.040;2023-03-23T01:06:05;33.95;;;6.55;;
27706;SDS011;36332;51.384;0.040;2023-03-23T01:08:34;42.13;;;6.55;;
27706;SDS011;36332;51.384;0.040;2023-03-23T01:11:03;43.92;;;7.10;;
27706;SDS011;36332;51.384;0.040;2023-03-23T01:13:32;44.20;;;7.00;;
27706;SDS011;36332;51.384;0.040;2023-03-23T01:15:59;37.47;;;6.70;;
27706;SDS011;36332;51.384;0.040;2023-03-23T01:18:26;46.47;;;7.57;;
27706;SDS011;36332;51.384;0.040;2023-03-23T01:20:52;58.05;;;8.23;;
27706;SDS011;36332;51.384;0.040;2023-03-23T01:23:19;52.78;;;8.15;;
27706;SDS011;36332;51.384;0.040;2023-03-23T01:25:46;54.67;;;6.20;;
27706;SDS011;36332;51.384;0.040;2023-03-23T01:28:12;43.10;;;7.13;;
27706;SDS011;36332;51.384;0.040;2023-03-23T01:30:39;36.28;;;6.82;;
27706;SDS011;36332;51.384;0.040;2023-03-23T01:33:06;37.20;;;6.40;;
27706;SDS011;36332;51.384;0.040;2023-03-23T01:35:36;29.20;;;6.53;;
27706;SDS011;36332;51.384;0.040;2023-03-23T01:38:04;37.85;;;8.60;;
27706;SDS011;36332;51.384;0.040;2023-03-23T01:40:30;36.08;;;6.35;;
27706;SDS011;36332;51.384;0.040;2023-03-23T01:42:57;47.08;;;6.82;;
27706;SDS011;36332;51.384;0.040;2023-03-23T01:48:00;31.40;;;5.22;;
27706;SDS011;36332;51.384;0.040;2023-03-23T01:50:34;56.40;;;9.95;;
27706;SDS011;36332;51.384;0.040;2023-03-23T01:53:05;38.85;;;6.85;;
27706;SDS011;36332;51.384;0.040;2023-03-23T01:55:35;44.72;;;6.57;;
27706;SDS011;36332;51.384;0.040;2023-03-23T01:58:04;42.17;;;5.95;;
27706;SDS011;36332;51.384;0.040;2023-03-23T02:00:32;32.13;;;6.00;;
27706;SDS011;36332;51.384;0.040;2023-03-23T02:03:00;41.25;;;6.72;;
27706;SDS011;36332;51.384;0.040;2023-03-23T02:05:32;42.67;;;6.75;;
27706;SDS011;36332;51.384;0.040;2023-03-23T02:08:10;35.42;;;7.00;;
27706;SDS011;36332;51.384;0.040;2023-03-23T02:10:40;38.17;;;5.93;;
27706;SDS011;36332;51.384;0.040;2023-03-23T02:13:08;43.97;;;6.15;;
27706;SDS011;36332;51.384;0.040;2023-03-23T02:15:50;52.03;;;5.95;;
27706;SDS011;36332;51.384;0.040;2023-03-23T02:18:33;45.13;;;6.13;;
27706;SDS011;36332;51.384;0.040;2023-03-23T02:27:10;38.42;;;6.05;;
27706;SDS011;36332;51.384;0.040;2023-03-23T02:29:52;39.90;;;6.10;;
27706;SDS011;36332;51.384;0.040;2023-03-23T02:35:28;50.72;;;7.57;;
27706;SDS011;36332;51.384;0.040;2023-03-23T02:38:05;50.05;;;8.40;;
27706;SDS011;36332;51.384;0.040;2023-03-23T02:40:41;45.33;;;6.53;;
27706;SDS011;36332;51.384;0.040;2023-03-23T02:43:12;49.53;;;7.43;;
27706;SDS011;36332;51.384;0.040;2023-03-23T02:45:41;50.47;;;8.38;;
27706;SDS011;36332;51.384;0.040;2023-03-23T02:48:10;49.30;;;7.15;;
27706;SDS011;36332;51.384;0.040;2023-03-23T02:50:41;58.67;;;7.40;;
27706;SDS011;36332;51.384;0.040;2023-03-23T02:53:12;56.17;;;6.60;;
27706;SDS011;36332;51.384;0.040;2023-03-23T02:55:42;50.47;;;9.82;;
27706;SDS011;36332;51.384;0.040;2023-03-23T02:58:15;45.30;;;7.25;;
27706;SDS011;36332;51.384;0.040;2023-03-23T03:00:43;42.05;;;6.47;;
27706;SDS011;36332;51.384;0.040;2023-03-23T03:03:16;45.42;;;6.45;;
27706;SDS011;36332;51.384;0.040;2023-03-23T03:08:52;41.38;;;5.72;;
27706;SDS011;36332;51.384;0.040;2023-03-23T03:11:24;32.03;;;5.53;;
27706;SDS011;36332;51.384;0.040;2023-03-23T03:13:57;48.97;;;7.55;;
27706;SDS011;36332;51.384;0.040;2023-03-23T03:21:35;44.95;;;5.57;;
27706;SDS011;36332;51.384;0.040;2023-03-23T03:24:05;35.17;;;5.28;;
27706;SDS011;36332;51.384;0.040;2023-03-23T03:26:41;50.78;;;7.57;;
27706;SDS011;36332;51.384;0.040;2023-03-23T03:29:30;46.25;;;6.68;;
27706;SDS011;36332;51.384;0.040;2023-03-23T03:32:01;54.65;;;7.72;;
27706;SDS011;36332;51.384;0.040;2023-03-23T03:34:32;37.80;;;5.80;;
27706;SDS011;36332;51.384;0.040;2023-03-23T03:36:59;51.38;;;7.57;;
27706;SDS011;36332;51.384;0.040;2023-03-23T03:39:26;47.63;;;6.55;;
27706;SDS011;36332;51.384;0.040;2023-03-23T03:41:53;48.70;;;6.10;;
27706;SDS011;36332;51.384;0.040;2023-03-23T03:44:21;48.83;;;6.88;;
27706;SDS011;36332;51.384;0.040;2023-03-23T03:46:47;72.50;;;7.32;;
27706;SDS011;36332;51.384;0.040;2023-03-23T03:49:14;65.75;;;9.18;;
27706;SDS011;36332;51.384;0.040;2023-03-23T03:51:42;47.78;;;7.00;;
27706;SDS011;36332;51.384;0.040;2023-03-23T03:54:17;55.03;;;9.60;;
27706;SDS011;36332;51.384;0.040;2023-03-23T03:56:43;57.67;;;9.00;;
27706;SDS011;36332;51.384;0.040;2023-03-23T03:59:37;44.60;;;6.38;;
27706;SDS011;36332;51.384;0.040;2023-03-23T04:02:43;50.60;;;8.60;;
27706;SDS011;36332;51.384;0.040;2023-03-23T04:05:14;38.67;;;6.35;;
27706;SDS011;36332;51.384;0.040;2023-03-23T04:07:43;47.90;;;8.68;;
27706;SDS011;36332;51.384;0.040;2023-03-23T04:10:11;54.22;;;7.72;;
27706;SDS011;36332;51.384;0.040;2023-03-23T04:12:41;46.10;;;6.00;;
27706;SDS011;36332;51.384;0.040;2023-03-23T04:15:20;42.00;;;6.35;;
27706;SDS011;36332;51.384;0.040;2023-03-23T04:17:48;40.42;;;7.93;;
27706;SDS011;36332;51.384;0.040;2023-03-23T04:20:16;34.25;;;5.93;;
27706;SDS011;36332;51.384;0.040;2023-03-23T04:22:49;59.70;;;6.90;;
27706;SDS011;36332;51.384;0.040;2023-03-23T04:25:18;44.30;;;5.88;;
27706;SDS011;36332;51.384;0.040;2023-03-23T04:27:51;43.65;;;7.60;;
27706;SDS011;36332;51.384;0.040;2023-03-23T04:30:22;49.85;;;7.43;;
27706;SDS011;36332;51.384;0.040;2023-03-23T04:33:07;42.38;;;7.10;;
27706;SDS011;36332;51.384;0.040;2023-03-23T04:35:35;38.38;;;6.43;;
27706;SDS011;36332;51.384;0.040;2023-03-23T04:38:10;42.17;;;5.95;;
27706;SDS011;36332;51.384;0.040;2023-03-23T04:40:38;39.28;;;6.32;;
27706;SDS011;36332;51.384;0.040;2023-03-23T04:43:22;40.53;;;6.35;;
27706;SDS011;36332;51.384;0.040;2023-03-23T04:45:59;52.47;;;10.40;;
27706;SDS011;36332;51.384;0.040;2023-03-23T04:48:30;45.08;;;6.85;;
27706;SDS011;36332;51.384;0.040;2023-03-23T04:51:17;44.35;;;7.45;;
27706;SDS011;36332;51.384;0.040;2023-03-23T04:53:47;47.63;;;8.48;;
27706;SDS011;36332;51.384;0.040;2023-03-23T04:56:14;55.25;;;7.03;;
27706;SDS011;36332;51.384;0.040;2023-03-23T04:58:44;46.65;;;6.95;;
27706;SDS011;36332;51.384;0.040;2023-03-23T05:01:14;52.55;;;7.40;;
27706;SDS011;36332;51.384;0.040;2023-03-23T05:03:51;51.17;;;6.97;;
27706;SDS011;36332;51.384;0.040;2023-03-23T05:06:17;77.60;;;9.18;;
27706;SDS011;36332;51.384;0.040;2023-03-23T05:08:44;68.60;;;9.50;;
27706;SDS011;36332;51.384;0.040;2023-03-23T05:11:12;59.97;;;7.18;;
27706;SDS011;36332;51.384;0.040;2023-03-23T05:13:41;47.72;;;10.07;;
27706;SDS011;36332;51.384;0.040;2023-03-23T05:16:11;65.40;;;9.23;;
27706;SDS011;36332;51.384;0.040;2023-03-23T05:18:39;54.13;;;7.85;;
27706;SDS011;36332;51.384;0.040;2023-03-23T05:21:09;56.50;;;9.15;;
27706;SDS011;36332;51.384;0.040;2023-03-23T05:23:39;48.45;;;7.28;;
27706;SDS011;36332;51.384;0.040;2023-03-23T05:26:16;61.47;;;9.40;;
27706;SDS011;36332;51.384;0.040;2023-03-23T05:28:42;37.58;;;6.43;;
27706;SDS011;36332;51.384;0.040;2023-03-23T05:31:22;65.78;;;7.97;;
27706;SDS011;36332;51.384;0.040;2023-03-23T05:33:51;54.95;;;8.02;;
27706;SDS011;36332;51.384;0.040;2023-03-23T05:36:28;53.60;;;9.10;;
27706;SDS011;36332;51.384;0.040;2023-03-23T05:39:06;53.03;;;8.43;;
27706;SDS011;36332;51.384;0.040;2023-03-23T05:42:05;57.97;;;7.90;;
27706;SDS011;36332;51.384;0.040;2023-03-23T05:45:03;60.50;;;10.93;;
27706;SDS011;36332;51.384;0.040;2023-03-23T05:47:31;57.40;;;7.43;;
27706;SDS011;36332;51.384;0.040;2023-03-23T05:50:06;61.42;;;10.00;;
27706;SDS011;36332;51.384;0.040;2023-03-23T05:52:35;64.45;;;10.55;;
27706;SDS011;36332;51.384;0.040;2023-03-23T05:55:07;52.85;;;7.38;;
27706;SDS011;36332;51.384;0.040;2023-03-23T05:57:37;52.05;;;9.25;;
27706;SDS011;36332;51.384;0.040;2023-03-23T06:00:26;35.10;;;6.68;;
27706;SDS011;36332;51.384;0.040;2023-03-23T06:03:07;50.65;;;7.93;;
27706;SDS011;36332;51.384;0.040;2023-03-23T06:05:43;48.57;;;6.20;;
27706;SDS011;36332;51.384;0.040;2023-03-23T06:08:14;45.13;;;6.05;;
27706;SDS011;36332;51.384;0.040;2023-03-23T06:10:41;46.85;;;7.38;;
27706;SDS011;36332;51.384;0.040;2023-03-23T06:13:08;47.83;;;6.45;;
27706;SDS011;36332;51.384;0.040;2023-03-23T06:15:40;44.95;;;5.80;;
27706;SDS011;36332;51.384;0.040;2023-03-23T06:18:26;50.63;;;6.75;;
27706;SDS011;36332;51.384;0.040;2023-03-23T06:21:10;39.03;;;6.65;;
27706;SDS011;36332;51.384;0.040;2023-03-23T06:23:52;45.63;;;5.82;;
27706;SDS011;36332;51.384;0.040;2023-03-23T06:26:20;38.95;;;6.03;;
27706;SDS011;36332;51.384;0.040;2023-03-23T06:28:56;47.40;;;6.40;;
27706;SDS011;36332;51.384;0.040;2023-03-23T06:31:24;40.42;;;6.50;;
27706;SDS011;36332;51.384;0.040;2023-03-23T06:33:53;49.88;;;6.05;;
27706;SDS011;36332;51.384;0.040;2023-03-23T06:36:25;40.30;;;5.90;;
27706;SDS011;36332;51.384;0.040;2023-03-23T06:39:06;46.00;;;8.23;;
27706;SDS011;36332;51.384;0.040;2023-03-23T06:41:52;34.63;;;5.88;;
27706;SDS011;36332;51.384;0.040;2023-03-23T06:44:18;36.63;;;5.40;;
27706;SDS011;36332;51.384;0.040;2023-03-23T06:46:46;41.80;;;6.25;;
27706;SDS011;36332;51.384;0.040;2023-03-23T06:49:21;46.70;;;6.80;;
27706;SDS011;36332;51.384;0.040;2023-03-23T06:51:54;44.17;;;7.68;;
27706;SDS011;36332;51.384;0.040;2023-03-23T06:54:24;47.03;;;6.82;;
27706;SDS011;36332;51.384;0.040;2023-03-23T06:56:51;48.80;;;8.00;;
27706;SDS011;36332;51.384;0.040;2023-03-23T06:59:18;43.42;;;5.82;;
27706;SDS011;36332;51.384;0.040;2023-03-23T07:01:46;41.42;;;5.95;;
27706;SDS011;36332;51.384;0.040;2023-03-23T07:04:15;50.58;;;7.38;;
27706;SDS011;36332;51.384;0.040;2023-03-23T07:07:05;47.55;;;6.53;;
27706;SDS011;36332;51.384;0.040;2023-03-23T07:09:44;41.33;;;6.30;;
27706;SDS011;36332;51.384;0.040;2023-03-23T07:12:11;49.70;;;6.72;;
27706;SDS011;36332;51.384;0.040;2023-03-23T07:14:45;56.83;;;6.75;;
27706;SDS011;36332;51.384;0.040;2023-03-23T07:17:12;54.00;;;9.85;;
27706;SDS011;36332;51.384;0.040;2023-03-23T07:19:48;56.15;;;7.72;;
27706;SDS011;36332;51.384;0.040;2023-03-23T07:22:17;35.83;;;7.07;;
27706;SDS011;36332;51.384;0.040;2023-03-23T07:24:49;40.90;;;6.38;;
27706;SDS011;36332;51.384;0.040;2023-03-23T07:27:22;51.53;;;9.32;;
27706;SDS011;36332;51.384;0.040;2023-03-23T07:29:52;44.72;;;7.57;;
27706;SDS011;36332;51.384;0.040;2023-03-23T07:32:23;53.78;;;7.03;;
27706;SDS011;36332;51.384;0.040;2023-03-23T07:34:50;50.03;;;8.07;;
27706;SDS011;36332;51.384;0.040;2023-03-23T07:37:35;54.10;;;7.90;;
27706;SDS011;36332;51.384;0.040;2023-03-23T07:40:02;50.22;;;8.40;;
27706;SDS011;36332;51.384;0.040;2023-03-23T07:42:42;50.33;;;7.38;;
27706;SDS011;36332;51.384;0.040;2023-03-23T07:45:10;48.55;;;7.22;;
27706;SDS011;36332;51.384;0.040;2023-03-23T07:47:38;48.08;;;9.27;;
27706;SDS011;36332;51.384;0.040;2023-03-23T07:50:06;35.75;;;5.88;;
27706;SDS011;36332;51.384;0.040;2023-03-23T07:52:37;42.55;;;5.75;;
27706;SDS011;36332;51.384;0.040;2023-03-23T07:55:05;49.40;;;5.90;;
27706;SDS011;36332;51.384;0.040;2023-03-23T07:57:54;46.47;;;6.65;;
27706;SDS011;36332;51.384;0.040;2023-03-23T08:00:21;44.92;;;6.15;;
27706;SDS011;36332;51.384;0.040;2023-03-23T08:02:56;30.02;;;5.55;;
27706;SDS011;36332;51.384;0.040;2023-03-23T08:05:46;38.88;;;5.68;;
27706;SDS011;36332;51.384;0.040;2023-03-23T08:08:33;49.42;;;9.70;;
27706;SDS011;36332;51.384;0.040;2023-03-23T08:11:00;45.13;;;6.30;;
27706;SDS011;36332;51.384;0.040;2023-03-23T08:13:42;36.90;;;6.57;;
27706;SDS011;36332;51.384;0.040;2023-03-23T08:16:34;43.20;;;6.72;;
27706;SDS011;36332;51.384;0.040;2023-03-23T08:19:37;46.53;;;6.80;;
27706;SDS011;36332;51.384;0.040;2023-03-23T08:22:29;59.17;;;9.05;;
27706;SDS011;36332;51.384;0.040;2023-03-23T08:25:15;41.03;;;6.60;;
27706;SDS011;36332;51.384;0.040;2023-03-23T08:28:09;39.40;;;5.97;;
27706;SDS011;36332;51.384;0.040;2023-03-23T08:31:07;35.72;;;5.30;;
27706;SDS011;36332;51.384;0.040;2023-03-23T08:33:56;37.22;;;6.20;;
27706;SDS011;36332;51.384;0.040;2023-03-23T08:36:41;46.40;;;7.43;;
27706;SDS011;36332;51.384;0.040;2023-03-23T08:39:36;43.75;;;6.55;;
27706;SDS011;36332;51.384;0.040;2023-03-23T08:42:15;43.10;;;7.13;;
27706;SDS011;36332;51.384;0.040;2023-03-23T08:45:02;44.65;;;7.45;;
27706;SDS011;36332;51.384;0.040;2023-03-23T08:47:48;29.90;;;5.23;;
27706;SDS011;36332;51.384;0.040;2023-03-23T08:50:37;37.33;;;6.38;;
27706;SDS011;36332;51.384;0.040;2023-03-23T08:53:15;44.83;;;7.00;;
27706;SDS011;36332;51.384;0.040;2023-03-23T08:55:48;34.33;;;5.85;;
27706;SDS011;36332;51.384;0.040;2023-03-23T08:58:24;39.92;;;6.85;;
27706;SDS011;36332;51.384;0.040;2023-03-23T09:01:09;38.90;;;5.30;;
27706;SDS011;36332;51.384;0.040;2023-03-23T09:03:42;38.13;;;6.30;;
27706;SDS011;36332;51.384;0.040;2023-03-23T09:06:36;36.72;;;5.63;;
27706;SDS011;36332;51.384;0.040;2023-03-23T09:09:03;33.85;;;6.90;;
27706;SDS011;36332;51.384;0.040;2023-03-23T09:11:33;41.10;;;5.43;;
27706;SDS011;36332;51.384;0.040;2023-03-23T09:14:00;37.47;;;6.45;;
27706;SDS011;36332;51.384;0.040;2023-03-23T09:16:27;43.83;;;6.55;;
27706;SDS011;36332;51.384;0.040;2023-03-23T09:18:54;38.50;;;5.95;;
27706;SDS011;36332;51.384;0.040;2023-03-23T09:21:26;37.72;;;7.85;;
27706;SDS011;36332;51.384;0.040;2023-03-23T09:23:54;55.88;;;6.97;;
27706;SDS011;36332;51.384;0.040;2023-03-23T09:26:25;40.75;;;6.30;;
27706;SDS011;36332;51.384;0.040;2023-03-23T09:28:52;40.35;;;6.78;;
27706;SDS011;36332;51.384;0.040;2023-03-23T09:31:19;32.20;;;7.47;;
27706;SDS011;36332;51.384;0.040;2023-03-23T09:33:46;40.70;;;6.47;;
27706;SDS011;36332;51.384;0.040;2023-03-23T09:36:13;42.03;;;6.53;;
27706;SDS011;36332;51.384;0.040;2023-03-23T09:38:43;30.70;;;5.63;;
27706;SDS011;36332;51.384;0.040;2023-03-23T09:47:14;28.67;;;4.63;;
27706;SDS011;36332;51.384;0.040;2023-03-23T09:50:02;30.60;;;6.53;;
27706;SDS011;36332;51.384;0.040;2023-03-23T09:55:44;52.30;;;7.47;;
27706;SDS011;36332;51.384;0.040;2023-03-23T09:58:17;42.33;;;6.75;;
27706;SDS011;36332;51.384;0.040;2023-03-23T10:00:58;35.97;;;6.45;;
27706;SDS011;36332;51.384;0.040;2023-03-23T10:03:35;32.45;;;6.18;;
27706;SDS011;36332;51.384;0.040;2023-03-23T10:06:11;32.47;;;5.73;;
27706;SDS011;36332;51.384;0.040;2023-03-23T10:08:51;43.95;;;7.28;;
27706;SDS011;36332;51.384;0.040;2023-03-23T10:17:16;45.08;;;7.78;;
27706;SDS011;36332;51.384;0.040;2023-03-23T10:22:29;36.90;;;7.40;;
27706;SDS011;36332;51.384;0.040;2023-03-23T10:25:03;38.03;;;6.60;;
27706;SDS011;36332;51.384;0.040;2023-03-23T10:27:49;38.65;;;5.47;;
27706;SDS011;36332;51.384;0.040;2023-03-23T10:30:33;28.15;;;6.43;;
27706;SDS011;36332;51.384;0.040;2023-03-23T10:35:57;30.35;;;5.70;;
27706;SDS011;36332;51.384;0.040;2023-03-23T10:38:37;33.42;;;4.50;;
27706;SDS011;36332;51.384;0.040;2023-03-23T10:41:06;28.13;;;4.63;;
27706;SDS011;36332;51.384;0.040;2023-03-23T10:43:40;19.83;;;4.90;;
27706;SDS011;36332;51.384;0.040;2023-03-23T10:49:09;37.05;;;6.68;;
27706;SDS011;36332;51.384;0.040;2023-03-23T10:51:41;31.58;;;4.70;;
27706;SDS011;36332;51.384;0.040;2023-03-23T10:54:10;40.47;;;5.57;;
27706;SDS011;36332;51.384;0.040;2023-03-23T10:56:38;30.48;;;5.68;;
27706;SDS011;36332;51.384;0.040;2023-03-23T10:59:20;37.85;;;6.20;;
27706;SDS011;36332;51.384;0.040;2023-03-23T11:01:54;43.25;;;6.60;;
27706;SDS011;36332;51.384;0.040;2023-03-23T11:04:23;37.95;;;6.57;;
27706;SDS011;36332;51.384;0.040;2023-03-23T11:06:52;40.65;;;5.53;;
27706;SDS011;36332;51.384;0.040;2023-03-23T11:09:21;40.55;;;7.20;;
27706;SDS011;36332;51.384;0.040;2023-03-23T11:11:59;33.90;;;7.05;;
27706;SDS011;36332;51.384;0.040;2023-03-23T11:14:32;23.70;;;5.65;;
27706;SDS011;36332;51.384;0.040;2023-03-23T11:17:04;45.08;;;6.70;;
27706;SDS011;36332;51.384;0.040;2023-03-23T11:19:33;36.95;;;6.60;;
27706;SDS011;36332;51.384;0.040;2023-03-23T11:24:43;32.65;;;5.07;;
27706;SDS011;36332;51.384;0.040;2023-03-23T11:27:12;28.42;;;5.75;;
27706;SDS011;36332;51.384;0.040;2023-03-23T11:29:48;34.47;;;5.85;;
27706;SDS011;36332;51.384;0.040;2023-03-23T11:32:15;27.67;;;4.72;;
27706;SDS011;36332;51.384;0.040;2023-03-23T11:34:44;31.60;;;4.93;;
27706;SDS011;36332;51.384;0.040;2023-03-23T11:39:58;26.35;;;4.45;;
27706;SDS011;36332;51.384;0.040;2023-03-23T11:42:37;19.45;;;3.92;;
27706;SDS011;36332;51.384;0.040;2023-03-23T11:51:01;24.30;;;4.70;;
27706;SDS011;36332;51.384;0.040;2023-03-23T11:56:24;23.00;;;4.63;;
27706;SDS011;36332;51.384;0.040;2023-03-23T11:58:54;31.08;;;5.78;;
27706;SDS011;36332;51.384;0.040;2023-03-23T12:01:32;28.58;;;5.15;;
27706;SDS011;36332;51.384;0.040;2023-03-23T12:13:00;24.73;;;6.47;;
27706;SDS011;36332;51.384;0.040;2023-03-23T12:24:42;39.08;;;6.82;;
27706;SDS011;36332;51.384;0.040;2023-03-23T12:27:32;37.92;;;7.50;;
27706;SDS011;36332;51.384;0.040;2023-03-23T12:43:42;39.40;;;6.13;;
27706;SDS011;36332;51.384;0.040;2023-03-23T12:49:15;39.30;;;5.95;;
27706;SDS011;36332;51.384;0.040;2023-03-23T12:57:39;31.70;;;5.95;;
27706;SDS011;36332;51.384;0.040;2023-03-23T13:03:28;35.47;;;6.88;;
27706;SDS011;36332;51.384;0.040;2023-03-23T13:08:57;30.40;;;6.32;;
27706;SDS011;36332;51.384;0.040;2023-03-23T13:11:35;28.67;;;7.53;;
27706;SDS011;36332;51.384;0.040;2023-03-23T13:14:06;40.10;;;7.20;;
27706;SDS011;36332;51.384;0.040;2023-03-23T13:16:38;43.97;;;7.30;;
27706;SDS011;36332;51.384;0.040;2023-03-23T13:22:02;32.75;;;6.20;;
27706;SDS011;36332;51.384;0.040;2023-03-23T13:24:46;27.10;;;5.10;;
27706;SDS011;36332;51.384;0.040;2023-03-23T13:27:22;27.00;;;5.90;;
27706;SDS011;36332;51.384;0.040;2023-03-23T13:29:54;26.25;;;4.40;;
27706;SDS011;36332;51.384;0.040;2023-03-23T13:32:22;32.03;;;7.55;;
27706;SDS011;36332;51.384;0.040;2023-03-23T13:35:05;36.25;;;6.72;;
27706;SDS011;36332;51.384;0.040;2023-03-23T13:37:44;29.80;;;5.93;;
27706;SDS011;36332;51.384;0.040;2023-03-23T13:42:55;32.42;;;6.93;;
27706;SDS011;36332;51.384;0.040;2023-03-23T13:56:17;42.55;;;7.50;;
27706;SDS011;36332;51.384;0.040;2023-03-23T13:58:47;42.13;;;6.30;;
27706;SDS011;36332;51.384;0.040;2023-03-23T14:01:31;36.30;;;7.35;;
27706;SDS011;36332;51.384;0.040;2023-03-23T14:04:06;32.13;;;5.72;;
27706;SDS011;36332;51.384;0.040;2023-03-23T14:06:41;31.92;;;6.53;;
27706;SDS011;36332;51.384;0.040;2023-03-23T14:09:19;33.33;;;5.60;;
27706;SDS011;36332;51.384;0.040;2023-03-23T14:11:57;35.17;;;6.78;;
27706;SDS011;36332;51.384;0.040;2023-03-23T14:15:18;32.25;;;6.15;;
27706;SDS011;36332;51.384;0.040;2023-03-23T14:17:31;56.88;;;9.27;;
27706;SDS011;36332;51.384;0.040;2023-03-23T14:20:04;31.30;;;6.15;;
27706;SDS011;36332;51.384;0.040;2023-03-23T14:22:39;29.88;;;5.35;;
27706;SDS011;36332;51.384;0.040;2023-03-23T14:25:16;33.95;;;6.80;;
27706;SDS011;36332;51.384;0.040;2023-03-23T14:27:44;28.40;;;5.93;;
27706;SDS011;36332;51.384;0.040;2023-03-23T14:30:15;46.53;;;8.13;;
27706;SDS011;36332;51.384;0.040;2023-03-23T14:32:44;38.63;;;6.28;;
27706;SDS011;36332;51.384;0.040;2023-03-23T14:37:49;37.70;;;6.53;;
27706;SDS011;36332;51.384;0.040;2023-03-23T14:40:16;45.78;;;8.10;;
27706;SDS011;36332;51.384;0.040;2023-03-23T14:42:44;45.38;;;7.55;;
27706;SDS011;36332;51.384;0.040;2023-03-23T14:45:14;46.75;;;8.45;;
27706;SDS011;36332;51.384;0.040;2023-03-23T14:47:53;44.28;;;8.18;;
27706;SDS011;36332;51.384;0.040;2023-03-23T14:52:52;41.22;;;7.00;;
27706;SDS011;36332;51.384;0.040;2023-03-23T14:55:20;39.55;;;7.45;;
27706;SDS011;36332;51.384;0.040;2023-03-23T14:57:48;43.40;;;6.60;;
27706;SDS011;36332;51.384;0.040;2023-03-23T15:00:18;38.78;;;8.55;;
27706;SDS011;36332;51.384;0.040;2023-03-23T15:02:49;41.60;;;7.78;;
27706;SDS011;36332;51.384;0.040;2023-03-23T15:05:22;38.03;;;6.30;;
27706;SDS011;36332;51.384;0.040;2023-03-23T15:07:55;35.75;;;6.47;;
27706;SDS011;36332;51.384;0.040;2023-03-23T15:10:26;33.30;;;6.43;;
27706;SDS011;36332;51.384;0.040;2023-03-23T15:12:53;50.88;;;9.30;;
27706;SDS011;36332;51.384;0.040;2023-03-23T15:18:00;49.28;;;9.13;;
27706;SDS011;36332;51.384;0.040;2023-03-23T15:20:29;58.05;;;8.43;;
27706;SDS011;36332;51.384;0.040;2023-03-23T15:23:13;44.85;;;7.13;;
27706;SDS011;36332;51.384;0.040;2023-03-23T15:25:50;39.58;;;7.22;;
27706;SDS011;36332;51.384;0.040;2023-03-23T15:28:30;34.80;;;7.18;;
27706;SDS011;36332;51.384;0.040;2023-03-23T15:31:02;43.50;;;7.15;;
27706;SDS011;36332;51.384;0.040;2023-03-23T15:33:38;44.80;;;7.40;;
27706;SDS011;36332;51.384;0.040;2023-03-23T15:36:07;40.60;;;7.80;;
27706;SDS011;36332;51.384;0.040;2023-03-23T15:38:35;40.13;;;7.25;;
27706;SDS011;36332;51.384;0.040;2023-03-23T15:41:04;38.58;;;7.38;;
27706;SDS011;36332;51.384;0.040;2023-03-23T15:43:37;43.70;;;7.85;;
27706;SDS011;36332;51.384;0.040;2023-03-23T15:48:47;47.28;;;7.65;;
27706;SDS011;36332;51.384;0.040;2023-03-23T15:51:24;49.63;;;8.13;;
27706;SDS011;36332;51.384;0.040;2023-03-23T15:53:52;34.78;;;7.32;;
27706;SDS011;36332;51.384;0.040;2023-03-23T15:56:20;46.30;;;8.10;;
27706;SDS011;36332;51.384;0.040;2023-03-23T15:58:47;42.28;;;8.05;;
27706;SDS011;36332;51.384;0.040;2023-03-23T16:06:29;49.28;;;7.57;;
27706;SDS011;36332;51.384;0.040;2023-03-23T16:08:58;48.45;;;8.40;;
27706;SDS011;36332;51.384;0.040;2023-03-23T16:11:27;48.67;;;9.30;;
27706;SDS011;36332;51.384;0.040;2023-03-23T16:13:57;39.13;;;9.25;;
27706;SDS011;36332;51.384;0.040;2023-03-23T16:16:28;42.78;;;6.97;;
27706;SDS011;36332;51.384;0.040;2023-03-23T16:18:58;38.10;;;6.75;;
27706;SDS011;36332;51.384;0.040;2023-03-23T16:21:26;38.78;;;6.13;;
27706;SDS011;36332;51.384;0.040;2023-03-23T16:23:54;42.45;;;7.38;;
27706;SDS011;36332;51.384;0.040;2023-03-23T16:26:23;41.10;;;6.72;;
27706;SDS011;36332;51.384;0.040;2023-03-23T16:28:51;43.40;;;6.50;;
27706;SDS011;36332;51.384;0.040;2023-03-23T16:31:29;32.63;;;6.07;;
27706;SDS011;36332;51.384;0.040;2023-03-23T16:33:57;37.35;;;7.82;;
27706;SDS011;36332;51.384;0.040;2023-03-23T16:36:24;45.97;;;7.53;;
27706;SDS011;36332;51.384;0.040;2023-03-23T16:38:52;30.17;;;7.10;;
27706;SDS011;36332;51.384;0.040;2023-03-23T16:41:20;40.92;;;7.40;;
27706;SDS011;36332;51.384;0.040;2023-03-23T16:43:49;34.50;;;5.90;;
27706;SDS011;36332;51.384;0.040;2023-03-23T16:46:17;24.33;;;5.15;;
27706;SDS011;36332;51.384;0.040;2023-03-23T16:48:44;22.02;;;3.88;;
27706;SDS011;36332;51.384;0.040;2023-03-23T16:51:12;24.15;;;4.40;;
27706;SDS011;36332;51.384;0.040;2023-03-23T16:53:39;18.45;;;3.70;;
27706;SDS011;36332;51.384;0.040;2023-03-23T16:56:07;15.95;;;3.10;;
27706;SDS011;36332;51.384;0.040;2023-03-23T16:58:34;14.82;;;4.07;;
27706;SDS011;36332;51.384;0.040;2023-03-23T17:01:02;20.52;;;3.80;;
27706;SDS011;36332;51.384;0.040;2023-03-23T17:03:29;28.00;;;4.13;;
27706;SDS011;36332;51.384;0.040;2023-03-23T17:05:58;18.65;;;3.65;;
27706;SDS011;36332;51.384;0.040;2023-03-23T17:08:27;18.90;;;3.90;;
27706;SDS011;36332;51.384;0.040;2023-03-23T17:10:55;15.88;;;3.42;;
27706;SDS011;36332;51.384;0.040;2023-03-23T17:13:22;17.52;;;3.30;;
27706;SDS011;36332;51.384;0.040;2023-03-23T17:15:54;21.17;;;4.30;;
27706;SDS011;36332;51.384;0.040;2023-03-23T17:18:23;10.00;;;2.85;;
27706;SDS011;36332;51.384;0.040;2023-03-23T17:20:54;17.25;;;3.42;;
27706;SDS011;36332;51.384;0.040;2023-03-23T17:23:21;18.10;;;5.18;;